sensor_id;sensor_type;location;lat;lon;timestamp;P1;durP1;ratioP1;P2;durP2;ratioP2
19830;SDS011;10076;52.008;4.708;2023-04-01T00:00:52;12.70;;;5.23;;
19830;SDS011;10076;52.008;4.708;2023-04-01T00:03:18;28.87;;;8.53;;
19830;SDS011;10076;52.008;4.708;2023-04-01T00:05:45;19.20;;;7.53;;
19830;SDS011;10076;52.008;4.708;2023-04-01T00:08:11;16.63;;;6.27;;
19830;SDS011;10076;52.008;4.708;2023-04-01T00:10:36;17.70;;;7.27;;
19830;SDS011;10076;52.008;4.708;2023-04-01T00:13:02;15.67;;;6.63;;
19830;SDS011;10076;52.008;4.708;2023-04-01T00:15:27;19.13;;;6.17;;
19830;SDS011;10076;52.008;4.708;2023-04-01T00:17:53;13.17;;;4.93;;
19830;SDS011;10076;52.008;4.708;2023-04-01T00:20:19;15.40;;;4.87;;
19830;SDS011;10076;52.008;4.708;2023-04-01T00:22:44;14.13;;;5.87;;
19830;SDS011;10076;52.008;4.708;2023-04-01T00:25:09;13.33;;;4.83;;
19830;SDS011;10076;52.008;4.708;2023-04-01T00:27:35;15.13;;;4.50;;
19830;SDS011;10076;52.008;4.708;2023-04-01T00:30:00;13.67;;;5.03;;
19830;SDS011;10076;52.008;4.708;2023-04-01T00:32:29;8.67;;;3.53;;
19830;SDS011;10076;52.008;4.708;2023-04-01T00:34:55;11.83;;;4.63;;
19830;SDS011;10076;52.008;4.708;2023-04-01T00:37:20;13.80;;;5.33;;
19830;SDS011;10076;52.008;4.708;2023-04-01T00:39:46;15.57;;;5.73;;
19830;SDS011;10076;52.008;4.708;2023-04-01T00:42:12;9.73;;;4.33;;
19830;SDS011;10076;52.008;4.708;2023-04-01T00:44:38;8.63;;;3.83;;
19830;SDS011;10076;52.008;4.708;2023-04-01T00:47:04;11.60;;;3.77;;
19830;SDS011;10076;52.008;4.708;2023-04-01T00:49:31;11.93;;;4.03;;
19830;SDS011;10076;52.008;4.708;2023-04-01T00:52:01;16.73;;;4.80;;
19830;SDS011;10076;52.008;4.708;2023-04-01T00:54:28;14.23;;;4.30;;
19830;SDS011;10076;52.008;4.708;2023-04-01T00:56:56;13.37;;;3.93;;
19830;SDS011;10076;52.008;4.708;2023-04-01T00:59:30;10.83;;;4.37;;
19830;SDS011;10076;52.008;4.708;2023-04-01T01:02:00;13.23;;;4.93;;
19830;SDS011;10076;52.008;4.708;2023-04-01T01:04:28;11.07;;;3.80;;
19830;SDS011;10076;52.008;4.708;2023-04-01T01:09:37;16.23;;;4.47;;
19830;SDS011;10076;52.008;4.708;2023-04-01T01:38:05;12.37;;;3.47;;
19830;SDS011;10076;52.008;4.708;2023-04-01T01:40:35;9.67;;;2.90;;
19830;SDS011;10076;52.008;4.708;2023-04-01T01:43:05;9.20;;;3.90;;
19830;SDS011;10076;52.008;4.708;2023-04-01T01:45:35;10.63;;;2.93;;
19830;SDS011;10076;52.008;4.708;2023-04-01T01:48:05;8.50;;;2.50;;
19830;SDS011;10076;52.008;4.708;2023-04-01T01:50:34;9.90;;;2.77;;
19830;SDS011;10076;52.008;4.708;2023-04-01T01:53:01;9.47;;;3.13;;
19830;SDS011;10076;52.008;4.708;2023-04-01T01:55:29;9.97;;;2.67;;
19830;SDS011;10076;52.008;4.708;2023-04-01T01:58:01;7.00;;;2.00;;
19830;SDS011;10076;52.008;4.708;2023-04-01T02:00:30;9.87;;;2.90;;
19830;SDS011;10076;52.008;4.708;2023-04-01T02:02:57;7.53;;;3.13;;
19830;SDS011;10076;52.008;4.708;2023-04-01T02:05:24;11.30;;;2.77;;
19830;SDS011;10076;52.008;4.708;2023-04-01T02:07:55;11.70;;;2.63;;
19830;SDS011;10076;52.008;4.708;2023-04-01T02:10:26;9.50;;;2.77;;
19830;SDS011;10076;52.008;4.708;2023-04-01T02:12:56;8.30;;;3.47;;
19830;SDS011;10076;52.008;4.708;2023-04-01T02:15:26;7.80;;;3.90;;
19830;SDS011;10076;52.008;4.708;2023-04-01T02:17:56;8.37;;;3.67;;
19830;SDS011;10076;52.008;4.708;2023-04-01T02:20:22;8.50;;;3.50;;
19830;SDS011;10076;52.008;4.708;2023-04-01T02:22:55;10.27;;;3.70;;
19830;SDS011;10076;52.008;4.708;2023-04-01T02:25:29;6.67;;;2.93;;
19830;SDS011;10076;52.008;4.708;2023-04-01T02:27:58;9.10;;;3.53;;
19830;SDS011;10076;52.008;4.708;2023-04-01T02:30:25;8.23;;;3.57;;
19830;SDS011;10076;52.008;4.708;2023-04-01T02:32:52;10.20;;;2.80;;
19830;SDS011;10076;52.008;4.708;2023-04-01T02:35:20;6.93;;;3.00;;
19830;SDS011;10076;52.008;4.708;2023-04-01T02:37:48;7.43;;;2.83;;
19830;SDS011;10076;52.008;4.708;2023-04-01T02:40:15;9.97;;;3.43;;
19830;SDS011;10076;52.008;4.708;2023-04-01T02:42:41;5.07;;;2.90;;
19830;SDS011;10076;52.008;4.708;2023-04-01T02:45:07;8.83;;;3.17;;
19830;SDS011;10076;52.008;4.708;2023-04-01T02:47:33;6.50;;;2.93;;
19830;SDS011;10076;52.008;4.708;2023-04-01T02:49:58;10.00;;;3.40;;
19830;SDS011;10076;52.008;4.708;2023-04-01T02:52:29;9.67;;;2.50;;
19830;SDS011;10076;52.008;4.708;2023-04-01T02:54:55;5.77;;;3.00;;
19830;SDS011;10076;52.008;4.708;2023-04-01T02:57:22;8.43;;;3.10;;
19830;SDS011;10076;52.008;4.708;2023-04-01T02:59:47;7.53;;;3.57;;
19830;SDS011;10076;52.008;4.708;2023-04-01T03:02:13;7.90;;;3.30;;
19830;SDS011;10076;52.008;4.708;2023-04-01T03:04:38;8.73;;;3.03;;
19830;SDS011;10076;52.008;4.708;2023-04-01T03:07:04;5.17;;;3.53;;
19830;SDS011;10076;52.008;4.708;2023-04-01T03:09:29;14.03;;;4.67;;
19830;SDS011;10076;52.008;4.708;2023-04-01T03:11:55;11.33;;;5.57;;
19830;SDS011;10076;52.008;4.708;2023-04-01T03:14:20;15.87;;;4.80;;
19830;SDS011;10076;52.008;4.708;2023-04-01T03:16:46;14.40;;;6.03;;
19830;SDS011;10076;52.008;4.708;2023-04-01T03:19:11;15.33;;;5.43;;
19830;SDS011;10076;52.008;4.708;2023-04-01T03:21:36;13.80;;;5.47;;
19830;SDS011;10076;52.008;4.708;2023-04-01T03:24:02;12.83;;;6.17;;
19830;SDS011;10076;52.008;4.708;2023-04-01T03:26:27;13.40;;;6.47;;
19830;SDS011;10076;52.008;4.708;2023-04-01T03:28:54;13.37;;;5.30;;
19830;SDS011;10076;52.008;4.708;2023-04-01T03:31:20;17.37;;;5.97;;
19830;SDS011;10076;52.008;4.708;2023-04-01T03:33:45;18.43;;;6.53;;
19830;SDS011;10076;52.008;4.708;2023-04-01T03:36:10;13.83;;;5.50;;
19830;SDS011;10076;52.008;4.708;2023-04-01T03:38:37;17.30;;;5.57;;
19830;SDS011;10076;52.008;4.708;2023-04-01T03:41:04;13.97;;;5.53;;
19830;SDS011;10076;52.008;4.708;2023-04-01T03:43:30;10.57;;;4.50;;
19830;SDS011;10076;52.008;4.708;2023-04-01T03:45:55;11.93;;;3.40;;
19830;SDS011;10076;52.008;4.708;2023-04-01T03:48:22;12.53;;;4.13;;
19830;SDS011;10076;52.008;4.708;2023-04-01T03:50:48;10.87;;;3.83;;
19830;SDS011;10076;52.008;4.708;2023-04-01T03:53:13;6.47;;;2.83;;
19830;SDS011;10076;52.008;4.708;2023-04-01T03:55:40;7.83;;;3.37;;
19830;SDS011;10076;52.008;4.708;2023-04-01T03:58:06;12.57;;;3.73;;
19830;SDS011;10076;52.008;4.708;2023-04-01T04:00:32;9.60;;;3.23;;
19830;SDS011;10076;52.008;4.708;2023-04-01T04:02:58;7.23;;;3.10;;
19830;SDS011;10076;52.008;4.708;2023-04-01T04:05:23;10.53;;;4.17;;
19830;SDS011;10076;52.008;4.708;2023-04-01T04:07:49;8.70;;;3.43;;
19830;SDS011;10076;52.008;4.708;2023-04-01T04:10:15;9.30;;;3.57;;
19830;SDS011;10076;52.008;4.708;2023-04-01T04:12:41;8.10;;;3.63;;
19830;SDS011;10076;52.008;4.708;2023-04-01T04:15:06;9.70;;;4.50;;
19830;SDS011;10076;52.008;4.708;2023-04-01T04:17:33;13.23;;;4.43;;
19830;SDS011;10076;52.008;4.708;2023-04-01T04:19:58;7.80;;;3.70;;
19830;SDS011;10076;52.008;4.708;2023-04-01T04:22:23;11.03;;;4.70;;
19830;SDS011;10076;52.008;4.708;2023-04-01T04:24:49;9.93;;;3.30;;
19830;SDS011;10076;52.008;4.708;2023-04-01T04:27:14;10.00;;;3.93;;
19830;SDS011;10076;52.008;4.708;2023-04-01T04:29:40;8.37;;;3.67;;
19830;SDS011;10076;52.008;4.708;2023-04-01T04:32:05;10.80;;;3.63;;
19830;SDS011;10076;52.008;4.708;2023-04-01T04:34:31;10.63;;;4.20;;
19830;SDS011;10076;52.008;4.708;2023-04-01T04:36:57;9.37;;;3.37;;
19830;SDS011;10076;52.008;4.708;2023-04-01T04:39:23;9.93;;;3.90;;
19830;SDS011;10076;52.008;4.708;2023-04-01T04:41:48;13.43;;;3.67;;
19830;SDS011;10076;52.008;4.708;2023-04-01T04:44:13;12.00;;;3.83;;
19830;SDS011;10076;52.008;4.708;2023-04-01T04:46:39;13.13;;;4.30;;
19830;SDS011;10076;52.008;4.708;2023-04-01T04:49:05;9.53;;;4.57;;
19830;SDS011;10076;52.008;4.708;2023-04-01T04:51:31;11.50;;;3.80;;
19830;SDS011;10076;52.008;4.708;2023-04-01T04:53:59;8.70;;;3.50;;
19830;SDS011;10076;52.008;4.708;2023-04-01T04:56:25;11.60;;;4.07;;
19830;SDS011;10076;52.008;4.708;2023-04-01T04:58:51;9.87;;;4.10;;
19830;SDS011;10076;52.008;4.708;2023-04-01T05:01:16;15.70;;;5.27;;
19830;SDS011;10076;52.008;4.708;2023-04-01T05:03:43;9.47;;;4.80;;
19830;SDS011;10076;52.008;4.708;2023-04-01T05:06:09;12.63;;;4.63;;
19830;SDS011;10076;52.008;4.708;2023-04-01T05:08:36;12.87;;;5.23;;
19830;SDS011;10076;52.008;4.708;2023-04-01T05:11:06;10.37;;;4.50;;
19830;SDS011;10076;52.008;4.708;2023-04-01T05:13:35;11.87;;;5.33;;
19830;SDS011;10076;52.008;4.708;2023-04-01T05:16:00;14.80;;;6.10;;
19830;SDS011;10076;52.008;4.708;2023-04-01T05:18:25;17.20;;;5.80;;
19830;SDS011;10076;52.008;4.708;2023-04-01T05:20:52;15.40;;;5.10;;
19830;SDS011;10076;52.008;4.708;2023-04-01T05:23:19;15.77;;;4.80;;
19830;SDS011;10076;52.008;4.708;2023-04-01T05:25:46;16.50;;;5.23;;
19830;SDS011;10076;52.008;4.708;2023-04-01T05:28:16;10.63;;;5.13;;
19830;SDS011;10076;52.008;4.708;2023-04-01T05:30:42;11.43;;;4.60;;
19830;SDS011;10076;52.008;4.708;2023-04-01T05:33:09;14.13;;;4.43;;
19830;SDS011;10076;52.008;4.708;2023-04-01T05:35:35;14.37;;;4.87;;
19830;SDS011;10076;52.008;4.708;2023-04-01T05:38:01;11.00;;;3.90;;
19830;SDS011;10076;52.008;4.708;2023-04-01T05:40:27;7.43;;;3.20;;
19830;SDS011;10076;52.008;4.708;2023-04-01T05:42:53;10.17;;;4.13;;
19830;SDS011;10076;52.008;4.708;2023-04-01T05:45:18;12.43;;;4.30;;
19830;SDS011;10076;52.008;4.708;2023-04-01T05:47:43;12.17;;;5.40;;
19830;SDS011;10076;52.008;4.708;2023-04-01T05:50:09;15.13;;;4.53;;
19830;SDS011;10076;52.008;4.708;2023-04-01T05:52:35;13.13;;;4.70;;
19830;SDS011;10076;52.008;4.708;2023-04-01T05:55:02;10.73;;;4.37;;
19830;SDS011;10076;52.008;4.708;2023-04-01T05:57:28;18.23;;;4.60;;
19830;SDS011;10076;52.008;4.708;2023-04-01T05:59:53;9.97;;;4.50;;
19830;SDS011;10076;52.008;4.708;2023-04-01T06:02:19;14.83;;;4.97;;
19830;SDS011;10076;52.008;4.708;2023-04-01T06:04:44;15.03;;;4.23;;
19830;SDS011;10076;52.008;4.708;2023-04-01T06:07:11;12.37;;;3.87;;
19830;SDS011;10076;52.008;4.708;2023-04-01T06:09:37;9.07;;;3.87;;
19830;SDS011;10076;52.008;4.708;2023-04-01T06:14:53;11.23;;;4.00;;
19830;SDS011;10076;52.008;4.708;2023-04-01T06:17:39;8.00;;;3.60;;
19830;SDS011;10076;52.008;4.708;2023-04-01T06:34:27;13.27;;;4.93;;
19830;SDS011;10076;52.008;4.708;2023-04-01T06:37:11;16.20;;;6.37;;
19830;SDS011;10076;52.008;4.708;2023-04-01T06:45:22;22.80;;;6.87;;
19830;SDS011;10076;52.008;4.708;2023-04-01T06:48:02;14.33;;;5.87;;
19830;SDS011;10076;52.008;4.708;2023-04-01T06:53:17;18.40;;;7.07;;
19830;SDS011;10076;52.008;4.708;2023-04-01T06:56:02;15.00;;;6.20;;
19830;SDS011;10076;52.008;4.708;2023-04-01T06:59:15;13.83;;;5.70;;
19830;SDS011;10076;52.008;4.708;2023-04-01T07:01:25;10.57;;;5.20;;
19830;SDS011;10076;52.008;4.708;2023-04-01T07:03:59;9.60;;;5.67;;
19830;SDS011;10076;52.008;4.708;2023-04-01T07:06:43;14.70;;;5.90;;
19830;SDS011;10076;52.008;4.708;2023-04-01T07:09:16;15.03;;;6.13;;
19830;SDS011;10076;52.008;4.708;2023-04-01T07:11:49;11.83;;;5.23;;
19830;SDS011;10076;52.008;4.708;2023-04-01T07:14:25;15.60;;;5.63;;
19830;SDS011;10076;52.008;4.708;2023-04-01T07:16:54;20.27;;;6.57;;
19830;SDS011;10076;52.008;4.708;2023-04-01T07:19:33;15.40;;;6.40;;
19830;SDS011;10076;52.008;4.708;2023-04-01T07:22:26;17.63;;;6.17;;
19830;SDS011;10076;52.008;4.708;2023-04-01T07:24:54;14.03;;;4.73;;
19830;SDS011;10076;52.008;4.708;2023-04-01T07:27:19;14.73;;;6.03;;
19830;SDS011;10076;52.008;4.708;2023-04-01T07:29:45;12.63;;;5.73;;
19830;SDS011;10076;52.008;4.708;2023-04-01T07:32:15;13.57;;;5.90;;
19830;SDS011;10076;52.008;4.708;2023-04-01T07:48:55;14.30;;;5.37;;
19830;SDS011;10076;52.008;4.708;2023-04-01T07:56:45;11.00;;;4.53;;
19830;SDS011;10076;52.008;4.708;2023-04-01T07:59:29;15.37;;;5.63;;
19830;SDS011;10076;52.008;4.708;2023-04-01T08:18:39;10.40;;;4.83;;
19830;SDS011;10076;52.008;4.708;2023-04-01T08:21:16;14.27;;;4.10;;
19830;SDS011;10076;52.008;4.708;2023-04-01T08:23:46;11.40;;;4.40;;
19830;SDS011;10076;52.008;4.708;2023-04-01T08:26:19;15.13;;;4.07;;
19830;SDS011;10076;52.008;4.708;2023-04-01T08:28:59;8.63;;;3.57;;
19830;SDS011;10076;52.008;4.708;2023-04-01T08:34:01;8.93;;;4.00;;
19830;SDS011;10076;52.008;4.708;2023-04-01T08:36:41;10.90;;;4.93;;
19830;SDS011;10076;52.008;4.708;2023-04-01T08:39:18;16.23;;;5.07;;
19830;SDS011;10076;52.008;4.708;2023-04-01T08:42:45;12.30;;;5.33;;
19830;SDS011;10076;52.008;4.708;2023-04-01T08:51:11;14.27;;;4.10;;
19830;SDS011;10076;52.008;4.708;2023-04-01T08:56:57;10.30;;;4.40;;
19830;SDS011;10076;52.008;4.708;2023-04-01T08:59:55;7.87;;;3.50;;
19830;SDS011;10076;52.008;4.708;2023-04-01T09:02:47;9.90;;;3.67;;
19830;SDS011;10076;52.008;4.708;2023-04-01T09:13:36;12.00;;;4.20;;
19830;SDS011;10076;52.008;4.708;2023-04-01T09:19:21;9.00;;;4.43;;
19830;SDS011;10076;52.008;4.708;2023-04-01T09:22:03;9.70;;;4.00;;
19830;SDS011;10076;52.008;4.708;2023-04-01T09:32:50;11.50;;;3.40;;
19830;SDS011;10076;52.008;4.708;2023-04-01T09:39:11;12.00;;;4.73;;
19830;SDS011;10076;52.008;4.708;2023-04-01T09:44:36;15.53;;;5.70;;
19830;SDS011;10076;52.008;4.708;2023-04-01T09:52:34;10.40;;;4.63;;
19830;SDS011;10076;52.008;4.708;2023-04-01T10:00:43;10.00;;;3.33;;
19830;SDS011;10076;52.008;4.708;2023-04-01T10:04:00;7.27;;;3.20;;
19830;SDS011;10076;52.008;4.708;2023-04-01T10:22:55;7.80;;;3.00;;
19830;SDS011;10076;52.008;4.708;2023-04-01T10:25:34;9.73;;;3.27;;
19830;SDS011;10076;52.008;4.708;2023-04-01T10:28:33;11.33;;;4.20;;
19830;SDS011;10076;52.008;4.708;2023-04-01T10:36:47;12.27;;;3.90;;
19830;SDS011;10076;52.008;4.708;2023-04-01T11:13:02;8.57;;;3.40;;
19830;SDS011;10076;52.008;4.708;2023-04-01T11:15:52;11.37;;;4.20;;
19830;SDS011;10076;52.008;4.708;2023-04-01T11:29:56;5.47;;;2.43;;
19830;SDS011;10076;52.008;4.708;2023-04-01T11:43:41;10.40;;;3.07;;
19830;SDS011;10076;52.008;4.708;2023-04-01T11:46:20;11.27;;;3.33;;
19830;SDS011;10076;52.008;4.708;2023-04-01T11:51:55;8.97;;;4.20;;
19830;SDS011;10076;52.008;4.708;2023-04-01T12:04:00;8.23;;;3.83;;
19830;SDS011;10076;52.008;4.708;2023-04-01T12:12:42;7.37;;;3.60;;
19830;SDS011;10076;52.008;4.708;2023-04-01T12:18:24;9.77;;;3.97;;
19830;SDS011;10076;52.008;4.708;2023-04-01T12:30:00;8.83;;;4.03;;
19830;SDS011;10076;52.008;4.708;2023-04-01T12:32:40;7.93;;;3.83;;
19830;SDS011;10076;52.008;4.708;2023-04-01T12:35:29;11.27;;;4.30;;
19830;SDS011;10076;52.008;4.708;2023-04-01T12:40:43;9.20;;;4.35;;
19830;SDS011;10076;52.008;4.708;2023-04-01T12:43:52;9.47;;;4.37;;
19830;SDS011;10076;52.008;4.708;2023-04-01T12:52:11;13.00;;;5.40;;
19830;SDS011;10076;52.008;4.708;2023-04-01T13:16:41;11.27;;;4.00;;
19830;SDS011;10076;52.008;4.708;2023-04-01T13:24:41;9.63;;;4.37;;
19830;SDS011;10076;52.008;4.708;2023-04-01T13:27:20;8.25;;;4.05;;
19830;SDS011;10076;52.008;4.708;2023-04-01T13:32:59;9.20;;;4.23;;
19830;SDS011;10076;52.008;4.708;2023-04-01T13:41:19;9.57;;;4.50;;
19830;SDS011;10076;52.008;4.708;2023-04-01T13:43:47;9.17;;;4.50;;
19830;SDS011;10076;52.008;4.708;2023-04-01T13:48:54;9.07;;;4.57;;
19830;SDS011;10076;52.008;4.708;2023-04-01T13:51:52;7.40;;;3.70;;
19830;SDS011;10076;52.008;4.708;2023-04-01T14:00:10;6.47;;;3.53;;
19830;SDS011;10076;52.008;4.708;2023-04-01T14:05:44;10.20;;;3.10;;
19830;SDS011;10076;52.008;4.708;2023-04-01T14:11:25;6.40;;;2.97;;
19830;SDS011;10076;52.008;4.708;2023-04-01T14:20:29;5.97;;;2.87;;
19830;SDS011;10076;52.008;4.708;2023-04-01T14:23:27;6.95;;;3.80;;
19830;SDS011;10076;52.008;4.708;2023-04-01T14:29:24;7.50;;;3.10;;
19830;SDS011;10076;52.008;4.708;2023-04-01T14:34:59;5.57;;;2.65;;
19830;SDS011;10076;52.008;4.708;2023-04-01T14:51:08;6.00;;;3.00;;
19830;SDS011;10076;52.008;4.708;2023-04-01T14:53:41;9.25;;;2.60;;
19830;SDS011;10076;52.008;4.708;2023-04-01T14:56:34;6.10;;;2.90;;
19830;SDS011;10076;52.008;4.708;2023-04-01T14:59:01;4.73;;;2.70;;
19830;SDS011;10076;52.008;4.708;2023-04-01T15:01:37;6.55;;;2.85;;
19830;SDS011;10076;52.008;4.708;2023-04-01T15:09:55;3.88;;;2.47;;
19830;SDS011;10076;52.008;4.708;2023-04-01T15:34:22;4.78;;;3.20;;
19830;SDS011;10076;52.008;4.708;2023-04-01T15:37:20;6.22;;;2.88;;
19830;SDS011;10076;52.008;4.708;2023-04-01T15:40:06;4.87;;;3.27;;
19830;SDS011;10076;52.008;4.708;2023-04-01T15:48:10;5.88;;;3.22;;
19830;SDS011;10076;52.008;4.708;2023-04-01T15:56:24;6.82;;;3.42;;
19830;SDS011;10076;52.008;4.708;2023-04-01T16:07:17;6.97;;;3.42;;
19830;SDS011;10076;52.008;4.708;2023-04-01T16:15:57;3.53;;;2.23;;
19830;SDS011;10076;52.008;4.708;2023-04-01T16:21:45;4.60;;;2.42;;
19830;SDS011;10076;52.008;4.708;2023-04-01T16:26:44;4.67;;;2.80;;
19830;SDS011;10076;52.008;4.708;2023-04-01T16:37:59;5.60;;;2.87;;
19830;SDS011;10076;52.008;4.708;2023-04-01T16:40:37;7.70;;;3.20;;
19830;SDS011;10076;52.008;4.708;2023-04-01T16:45:47;6.53;;;3.50;;
19830;SDS011;10076;52.008;4.708;2023-04-01T16:48:22;5.17;;;3.23;;
19830;SDS011;10076;52.008;4.708;2023-04-01T16:50:59;4.53;;;2.87;;
19830;SDS011;10076;52.008;4.708;2023-04-01T16:56:21;6.97;;;2.93;;
19830;SDS011;10076;52.008;4.708;2023-04-01T17:01:20;9.73;;;3.60;;
19830;SDS011;10076;52.008;4.708;2023-04-01T17:03:53;5.23;;;3.10;;
19830;SDS011;10076;52.008;4.708;2023-04-01T17:06:31;4.93;;;3.30;;
19830;SDS011;10076;52.008;4.708;2023-04-01T17:09:20;5.70;;;3.00;;
19830;SDS011;10076;52.008;4.708;2023-04-01T17:12:05;4.47;;;2.73;;
19830;SDS011;10076;52.008;4.708;2023-04-01T17:14:51;5.07;;;2.70;;
19830;SDS011;10076;52.008;4.708;2023-04-01T17:17:31;6.10;;;3.03;;
19830;SDS011;10076;52.008;4.708;2023-04-01T17:22:55;3.57;;;2.50;;
19830;SDS011;10076;52.008;4.708;2023-04-01T17:27:59;4.10;;;2.90;;
19830;SDS011;10076;52.008;4.708;2023-04-01T17:37:00;3.07;;;2.37;;
19830;SDS011;10076;52.008;4.708;2023-04-01T17:50:13;2.13;;;1.87;;
19830;SDS011;10076;52.008;4.708;2023-04-01T17:52:46;3.07;;;2.10;;
19830;SDS011;10076;52.008;4.708;2023-04-01T17:58:20;2.73;;;2.03;;
19830;SDS011;10076;52.008;4.708;2023-04-01T18:03:54;2.67;;;1.83;;
19830;SDS011;10076;52.008;4.708;2023-04-01T18:06:51;2.80;;;2.23;;
19830;SDS011;10076;52.008;4.708;2023-04-01T18:09:44;3.97;;;1.93;;
19830;SDS011;10076;52.008;4.708;2023-04-01T18:12:20;5.27;;;2.07;;
19830;SDS011;10076;52.008;4.708;2023-04-01T18:15:03;3.03;;;1.90;;
19830;SDS011;10076;52.008;4.708;2023-04-01T18:17:42;3.33;;;2.10;;
19830;SDS011;10076;52.008;4.708;2023-04-01T18:22:56;3.47;;;2.37;;
19830;SDS011;10076;52.008;4.708;2023-04-01T18:25:28;2.33;;;1.80;;
19830;SDS011;10076;52.008;4.708;2023-04-01T18:33:29;4.40;;;2.60;;
19830;SDS011;10076;52.008;4.708;2023-04-01T18:38:41;3.67;;;2.17;;
19830;SDS011;10076;52.008;4.708;2023-04-01T18:46:39;2.23;;;1.87;;
19830;SDS011;10076;52.008;4.708;2023-04-01T18:51:55;4.47;;;2.20;;
19830;SDS011;10076;52.008;4.708;2023-04-01T18:54:29;3.63;;;2.67;;
19830;SDS011;10076;52.008;4.708;2023-04-01T18:57:13;3.40;;;2.37;;
19830;SDS011;10076;52.008;4.708;2023-04-01T19:07:39;4.43;;;2.70;;
19830;SDS011;10076;52.008;4.708;2023-04-01T19:10:21;4.33;;;2.73;;
19830;SDS011;10076;52.008;4.708;2023-04-01T19:15:33;2.87;;;2.60;;
19830;SDS011;10076;52.008;4.708;2023-04-01T19:18:31;3.73;;;2.47;;
19830;SDS011;10076;52.008;4.708;2023-04-01T19:23:45;4.07;;;2.63;;
19830;SDS011;10076;52.008;4.708;2023-04-01T19:31:43;3.13;;;2.33;;
19830;SDS011;10076;52.008;4.708;2023-04-01T19:34:43;3.90;;;2.10;;
19830;SDS011;10076;52.008;4.708;2023-04-01T19:37:24;3.37;;;2.20;;
19830;SDS011;10076;52.008;4.708;2023-04-01T19:42:44;5.10;;;2.87;;
19830;SDS011;10076;52.008;4.708;2023-04-01T19:45:24;3.47;;;2.57;;
19830;SDS011;10076;52.008;4.708;2023-04-01T19:51:00;3.93;;;2.57;;
19830;SDS011;10076;52.008;4.708;2023-04-01T19:56:19;5.10;;;3.33;;
19830;SDS011;10076;52.008;4.708;2023-04-01T20:04:56;3.60;;;2.40;;
19830;SDS011;10076;52.008;4.708;2023-04-01T20:10:04;4.13;;;2.60;;
19830;SDS011;10076;52.008;4.708;2023-04-01T20:12:54;6.13;;;2.90;;
19830;SDS011;10076;52.008;4.708;2023-04-01T20:15:35;3.57;;;2.50;;
19830;SDS011;10076;52.008;4.708;2023-04-01T20:18:12;4.93;;;2.40;;
19830;SDS011;10076;52.008;4.708;2023-04-01T20:20:54;4.93;;;2.90;;
19830;SDS011;10076;52.008;4.708;2023-04-01T20:23:31;6.37;;;2.83;;
19830;SDS011;10076;52.008;4.708;2023-04-01T20:26:06;5.50;;;2.90;;
19830;SDS011;10076;52.008;4.708;2023-04-01T20:28:44;5.17;;;2.77;;
19830;SDS011;10076;52.008;4.708;2023-04-01T20:31:23;4.30;;;2.90;;
19830;SDS011;10076;52.008;4.708;2023-04-01T20:45:32;3.23;;;2.30;;
19830;SDS011;10076;52.008;4.708;2023-04-01T20:48:09;4.47;;;2.63;;
19830;SDS011;10076;52.008;4.708;2023-04-01T20:53:50;4.57;;;3.00;;
19830;SDS011;10076;52.008;4.708;2023-04-01T21:04:26;4.20;;;2.30;;
19830;SDS011;10076;52.008;4.708;2023-04-01T21:07:17;3.37;;;2.43;;
19830;SDS011;10076;52.008;4.708;2023-04-01T21:35:26;5.47;;;3.07;;
19830;SDS011;10076;52.008;4.708;2023-04-01T21:38:14;5.20;;;3.20;;
19830;SDS011;10076;52.008;4.708;2023-04-01T21:55:01;4.20;;;2.93;;
19830;SDS011;10076;52.008;4.708;2023-04-01T22:03:07;4.03;;;2.37;;
19830;SDS011;10076;52.008;4.708;2023-04-01T22:16:48;5.83;;;2.80;;
19830;SDS011;10076;52.008;4.708;2023-04-01T22:32:42;5.10;;;2.60;;
19830;SDS011;10076;52.008;4.708;2023-04-01T22:35:17;4.60;;;2.90;;
19830;SDS011;10076;52.008;4.708;2023-04-01T22:37:52;6.87;;;3.37;;
19830;SDS011;10076;52.008;4.708;2023-04-01T22:43:10;5.67;;;2.80;;
19830;SDS011;10076;52.008;4.708;2023-04-01T22:56:22;5.50;;;3.23;;
19830;SDS011;10076;52.008;4.708;2023-04-01T23:01:44;4.67;;;3.10;;
19830;SDS011;10076;52.008;4.708;2023-04-01T23:04:15;4.80;;;2.90;;
19830;SDS011;10076;52.008;4.708;2023-04-01T23:06:47;5.37;;;2.80;;
19830;SDS011;10076;52.008;4.708;2023-04-01T23:09:19;5.40;;;3.00;;
19830;SDS011;10076;52.008;4.708;2023-04-01T23:12:08;5.30;;;2.93;;
19830;SDS011;10076;52.008;4.708;2023-04-01T23:20:12;5.70;;;3.13;;
19830;SDS011;10076;52.008;4.708;2023-04-01T23:31:27;6.77;;;3.10;;
19830;SDS011;10076;52.008;4.708;2023-04-01T23:33:56;7.43;;;3.67;;
19830;SDS011;10076;52.008;4.708;2023-04-01T23:36:23;6.13;;;3.77;;
19830;SDS011;10076;52.008;4.708;2023-04-01T23:38:49;5.77;;;3.20;;
19830;SDS011;10076;52.008;4.708;2023-04-01T23:43:55;4.60;;;3.00;;
19830;SDS011;10076;52.008;4.708;2023-04-01T23:46:24;4.97;;;3.50;;
19830;SDS011;10076;52.008;4.708;2023-04-01T23:48:50;6.53;;;3.47;;
19830;SDS011;10076;52.008;4.708;2023-04-01T23:51:27;6.47;;;3.10;;
19830;SDS011;10076;52.008;4.708;2023-04-01T23:54:02;6.10;;;3.23;;
19830;SDS011;10076;52.008;4.708;2023-04-01T23:56:41;7.13;;;3.17;;
19830;SDS011;10076;52.008;4.708;2023-04-01T23:59:14;5.67;;;3.50;;
